Time;durP1;ratioP1;P1;durP2;ratioP2;P2;SDS_P1;SDS_P2;PMS_P1;PMS_P2;Temp;Humidity;BMP_temperature;BMP_pressure;BME280_temperature;BME280_humidity;BME280_pressure;Samples;Min_cycle;Max_cycle;Signal;HPM_P1;HPM_P2
2023/11/21 00:01:01;;;;;;;6.43;5.13;;;;;;;7.26;100.00;100446.50;6019110;23;20046;-74
2023/11/21 00:03:28;;;;;;;5.68;5.18;;;;;;;7.62;100.00;100494.59;6020481;23;20038;-73
2023/11/21 00:05:54;;;;;;;5.55;5.15;;;;;;;7.25;100.00;100442.19;6023779;23;20085;-74
2023/11/21 00:08:21;;;;;;;6.43;5.93;;;;;;;7.66;100.00;100506.59;6020076;23;20033;-75
2023/11/21 00:10:48;;;;;;;5.60;5.20;;;;;;;7.70;100.00;100495.13;5999055;23;20041;-75
2023/11/21 00:13:14;;;;;;;7.05;6.47;;;;;;;7.77;100.00;100517.44;6022039;23;20102;-75
2023/11/21 00:15:41;;;;;;;7.07;5.65;;;;;;;7.70;100.00;100511.63;6024503;23;20096;-74
2023/11/21 00:18:07;;;;;;;5.72;5.22;;;;;;;7.72;100.00;100498.53;6022599;23;20078;-74
2023/11/21 00:20:34;;;;;;;8.02;7.22;;;;;;;7.97;100.00;100525.25;6019609;23;20018;-75
2023/11/21 00:23:02;;;;;;;6.13;5.68;;;;;;;7.98;100.00;100519.13;5995202;23;20037;-75
2023/11/21 00:25:28;;;;;;;5.00;4.70;;;;;;;8.01;100.00;100531.19;6018160;23;20046;-76
2023/11/21 00:27:55;;;;;;;6.30;5.68;;;;;;;7.99;100.00;100527.78;6019839;23;20047;-75
2023/11/21 00:30:22;;;;;;;6.40;6.00;;;;;;;6.61;100.00;100335.31;6021888;23;21406;-75
2023/11/21 00:32:48;;;;;;;5.78;5.28;;;;;;;7.99;100.00;100525.19;6019537;23;20034;-73
2023/11/21 00:35:15;;;;;;;12.85;4.60;;;;;;;7.85;100.00;100504.03;6024402;23;20445;-75
2023/11/21 00:37:42;;;;;;;5.70;5.22;;;;;;;7.81;100.00;100505.09;6015856;23;20031;-74
2023/11/21 00:40:12;;;;;;;5.43;5.13;;;;;;;7.71;100.00;100491.59;6021100;23;20022;-75
2023/11/21 00:42:39;;;;;;;7.63;6.20;;;;;;;8.00;100.00;100537.34;5988631;23;20019;-73
2023/11/21 00:45:06;;;;;;;7.38;4.97;;;;;;;8.01;100.00;100541.63;6021308;23;20022;-75
2023/11/21 00:47:32;;;;;;;5.13;4.75;;;;;;;7.58;100.00;100473.84;5996488;23;20407;-73
2023/11/21 00:49:59;;;;;;;6.63;5.50;;;;;;;7.42;100.00;100458.88;6019162;23;20030;-74
2023/11/21 00:52:26;;;;;;;6.15;5.85;;;;;;;7.08;100.00;100416.81;5991720;23;20034;-74
2023/11/21 00:54:52;;;;;;;6.45;4.90;;;;;;;7.74;100.00;100535.88;6020696;23;20072;-73
2023/11/21 00:57:19;;;;;;;7.25;5.38;;;;;;;6.28;100.00;100318.41;6007798;23;20054;-74
2023/11/21 00:59:45;;;;;;;5.32;4.82;;;;;;;7.51;100.00;100531.59;5999675;23;20011;-75
2023/11/21 01:02:12;;;;;;;5.32;4.95;;;;;;;6.74;100.00;100433.84;5999423;23;20031;-74
2023/11/21 01:04:38;;;;;;;6.85;6.28;;;;;;;7.36;100.00;100559.22;5996544;23;20074;-74
2023/11/21 01:07:05;;;;;;;5.05;4.75;;;;;;;7.24;100.00;100539.69;6021631;23;20041;-75
2023/11/21 01:09:32;;;;;;;5.82;5.32;;;;;;;6.17;100.00;100381.38;6008274;23;20015;-74
2023/11/21 01:11:59;;;;;;;6.57;5.85;;;;;;;7.16;100.00;100554.81;6026392;23;20027;-73
2023/11/21 01:14:26;;;;;;;6.03;5.68;;;;;;;6.83;100.00;100523.06;6021891;23;20031;-73
2023/11/21 01:16:55;;;;;;;6.65;4.68;;;;;;;6.93;100.00;100545.28;6025486;23;20058;-74
2023/11/21 01:19:22;;;;;;;6.47;5.97;;;;;;;7.06;100.00;100576.97;6024785;23;20034;-73
2023/11/21 01:21:48;;;;;;;6.80;6.13;;;;;;;6.47;100.00;100481.88;6023145;23;20037;-75
2023/11/21 01:24:15;;;;;;;7.95;5.35;;;;;;;7.01;100.00;100573.69;6024546;23;20049;-74
2023/11/21 01:26:41;;;;;;;6.32;5.72;;;;;;;6.99;100.00;100568.50;5993397;23;20019;-75
2023/11/21 01:29:08;;;;;;;5.18;4.88;;;;;;;6.95;100.00;100569.53;6025094;23;20022;-73
2023/11/21 01:31:34;;;;;;;4.72;4.43;;;;;;;6.92;100.00;100578.34;6024508;23;20097;-75
2023/11/21 01:34:01;;;;;;;5.78;5.20;;;;;;;6.93;100.00;100568.75;5971815;23;20030;-75
2023/11/21 01:36:35;;;;;;;12.38;6.35;;;;;;;6.55;100.00;100514.56;6020438;23;20047;-74
2023/11/21 01:39:02;;;;;;;5.30;4.88;;;;;;;6.25;100.00;100466.22;5999804;23;20078;-73
2023/11/21 01:41:29;;;;;;;4.80;4.47;;;;;;;6.24;100.00;100481.00;5999647;23;20042;-73
2023/11/21 01:43:56;;;;;;;6.35;5.45;;;;;;;6.68;100.00;100559.28;6023253;23;20018;-75
2023/11/21 01:46:24;;;;;;;5.28;4.75;;;;;;;6.17;100.00;100476.91;5998879;23;20023;-74
2023/11/21 01:48:51;;;;;;;6.18;5.68;;;;;;;6.42;100.00;100531.59;6020888;23;20039;-74
2023/11/21 01:51:18;;;;;;;4.97;4.68;;;;;;;6.39;100.00;100548.19;6024779;23;20488;-73
2023/11/21 01:53:46;;;;;;;16.00;4.80;;;;;;;5.70;100.00;100448.25;6005500;23;20055;-74
2023/11/21 01:56:13;;;;;;;6.32;5.75;;;;;;;6.25;100.00;100542.63;6021848;23;20023;-72
2023/11/21 01:58:40;;;;;;;7.72;7.03;;;;;;;5.69;100.00;100454.34;6028103;23;20418;-74
2023/11/21 02:01:06;;;;;;;5.60;5.07;;;;;;;5.43;100.00;100388.44;6024560;23;20035;-74
2023/11/21 02:03:33;;;;;;;5.50;5.20;;;;;;;6.46;100.00;100579.25;6008462;23;20504;-75
2023/11/21 02:06:00;;;;;;;6.15;5.60;;;;;;;6.29;100.00;100569.44;6020062;23;20050;-74
2023/11/21 02:08:26;;;;;;;8.40;7.68;;;;;;;6.18;100.00;100520.31;6021147;23;20097;-73
2023/11/21 02:10:53;;;;;;;5.57;5.28;;;;;;;6.51;100.00;100575.53;5997192;23;20643;-76
2023/11/21 02:13:19;;;;;;;6.68;6.07;;;;;;;6.69;100.00;100607.91;6025591;23;20039;-73
2023/11/21 02:15:47;;;;;;;5.80;5.40;;;;;;;6.74;100.00;100615.56;6028805;23;20042;-74
2023/11/21 02:18:15;;;;;;;5.05;4.57;;;;;;;6.67;100.00;100601.06;6006225;23;20046;-74
2023/11/21 02:20:42;;;;;;;4.80;4.57;;;;;;;6.55;100.00;100574.53;6018387;23;20029;-73
2023/11/21 02:23:09;;;;;;;6.13;5.72;;;;;;;6.68;100.00;100636.66;6025671;23;20166;-73
2023/11/21 02:25:37;;;;;;;6.30;5.75;;;;;;;6.89;100.00;100629.78;5991636;23;20077;-74
2023/11/21 02:28:04;;;;;;;8.23;5.85;;;;;;;6.64;100.00;100591.59;5996012;23;20039;-74
2023/11/21 02:30:33;;;;;;;14.35;7.57;;;;;;;6.95;100.00;100637.38;6017943;23;20046;-74
2023/11/21 02:33:01;;;;;;;5.75;5.38;;;;;;;6.56;100.00;100578.84;6027339;23;20422;-75
2023/11/21 02:35:28;;;;;;;7.03;6.28;;;;;;;6.87;100.00;100627.22;6010760;23;20625;-75
2023/11/21 02:37:55;;;;;;;6.10;5.60;;;;;;;6.26;100.00;100525.25;6019277;23;20120;-75
2023/11/21 02:40:22;;;;;;;7.60;7.00;;;;;;;6.90;100.00;100623.66;6010221;23;20033;-75
2023/11/21 02:42:50;;;;;;;6.47;5.55;;;;;;;7.23;100.00;100655.41;5997021;23;20026;-74
2023/11/21 02:45:18;;;;;;;5.20;4.80;;;;;;;5.60;100.00;100383.47;6028406;23;20054;-75
2023/11/21 02:47:45;;;;;;;6.93;6.28;;;;;;;7.08;100.00;100622.97;6000324;23;20023;-74
2023/11/21 02:50:12;;;;;;;7.07;6.38;;;;;;;6.78;100.00;100575.44;6017897;23;20083;-74
2023/11/21 02:52:42;;;;;;;7.28;6.68;;;;;;;7.10;100.00;100615.91;5995894;23;20038;-73
2023/11/21 02:55:09;;;;;;;6.38;5.65;;;;;;;7.32;100.00;100657.69;6026016;23;20034;-73
2023/11/21 02:57:35;;;;;;;9.40;6.78;;;;;;;7.14;100.00;100622.72;6009874;23;20023;-73
2023/11/21 03:00:02;;;;;;;7.18;5.95;;;;;;;7.37;100.00;100662.72;6019542;23;20034;-73
2023/11/21 03:02:29;;;;;;;7.90;7.07;;;;;;;6.56;100.00;100525.84;6019689;23;20923;-73
2023/11/21 03:04:55;;;;;;;7.45;6.82;;;;;;;7.34;100.00;100663.69;5998469;23;20027;-73
2023/11/21 03:07:22;;;;;;;8.05;6.63;;;;;;;7.38;100.00;100664.44;6001800;23;20108;-72
2023/11/21 03:09:48;;;;;;;6.68;6.15;;;;;;;6.83;100.00;100589.13;6026129;23;20054;-73
2023/11/21 03:12:15;;;;;;;7.18;6.47;;;;;;;6.91;100.00;100587.06;6006383;23;20063;-73
2023/11/21 03:14:42;;;;;;;6.93;6.22;;;;;;;7.39;100.00;100673.94;6023061;23;20101;-74
2023/11/21 03:17:08;;;;;;;6.95;6.45;;;;;;;7.42;100.00;100666.00;6004013;23;20086;-74
2023/11/21 03:19:35;;;;;;;6.97;6.43;;;;;;;6.79;100.00;100566.69;6022189;23;20505;-73
2023/11/21 03:22:01;;;;;;;7.63;6.88;;;;;;;7.22;100.00;100645.03;6019598;23;20636;-74
2023/11/21 03:24:28;;;;;;;7.47;6.80;;;;;;;7.42;100.00;100671.22;5990645;23;20031;-74
2023/11/21 03:26:54;;;;;;;7.13;6.43;;;;;;;6.79;100.00;100579.72;6024348;23;20030;-74
2023/11/21 03:29:21;;;;;;;6.22;5.63;;;;;;;7.14;100.00;100638.38;5998139;23;20034;-74
2023/11/21 03:31:47;;;;;;;7.00;5.45;;;;;;;7.12;100.00;100640.19;6022735;23;20037;-73
2023/11/21 03:34:28;;;;;;;7.00;6.40;;;;;;;7.10;100.00;100635.94;6024716;23;20027;-74
2023/11/21 03:36:55;;;;;;;7.95;6.60;;;;;;;7.43;100.00;100674.69;6001009;23;20031;-73
2023/11/21 03:39:22;;;;;;;7.68;6.45;;;;;;;7.38;100.00;100677.50;6017984;23;20027;-74
2023/11/21 03:41:49;;;;;;;20.40;18.75;;;;;;;6.33;100.00;100521.50;5898842;23;20503;-75
2023/11/21 03:44:17;;;;;;;7.25;6.55;;;;;;;6.96;100.00;100636.47;5990548;23;20030;-75
2023/11/21 03:46:44;;;;;;;6.03;5.63;;;;;;;7.37;100.00;100702.72;6024142;23;20081;-73
2023/11/21 03:49:10;;;;;;;6.50;5.90;;;;;;;7.37;100.00;100710.56;6019082;23;20018;-72
2023/11/21 03:51:37;;;;;;;6.60;6.00;;;;;;;7.45;100.00;100736.38;6024702;23;20030;-75
2023/11/21 03:54:04;;;;;;;10.88;5.93;;;;;;;7.47;100.00;100724.09;5998118;23;20019;-75
2023/11/21 03:56:30;;;;;;;8.10;7.28;;;;;;;7.27;100.00;100695.31;6016616;23;20050;-73
2023/11/21 03:58:57;;;;;;;6.55;6.03;;;;;;;7.35;100.00;100720.22;5998976;23;20093;-73
2023/11/21 04:01:24;;;;;;;7.53;6.80;;;;;;;7.08;100.00;100698.63;6017081;23;20618;-74
2023/11/21 04:03:51;;;;;;;10.07;8.90;;;;;;;7.33;100.00;100729.84;6023059;23;20046;-73
2023/11/21 04:06:18;;;;;;;9.18;6.00;;;;;;;6.20;100.00;100539.34;5997130;23;20104;-72
2023/11/21 04:08:45;;;;;;;8.77;7.68;;;;;;;7.32;100.00;100737.78;5994880;23;20027;-73
2023/11/21 04:11:12;;;;;;;7.47;6.68;;;;;;;7.17;100.00;100729.59;6004551;23;20035;-72
2023/11/21 04:13:39;;;;;;;9.05;6.45;;;;;;;6.84;100.00;100655.22;6014503;23;20023;-74
2023/11/21 04:16:07;;;;;;;8.52;7.40;;;;;;;7.36;100.00;100731.53;5995590;23;20089;-74
2023/11/21 04:18:37;;;;;;;8.13;7.63;;;;;;;7.39;100.00;100736.59;6009328;23;20030;-74
2023/11/21 04:21:07;;;;;;;7.50;6.03;;;;;;;6.64;100.00;100611.63;6005559;23;20818;-73
2023/11/21 04:23:35;;;;;;;7.68;7.00;;;;;;;7.36;100.00;100736.75;6024049;23;20011;-74
2023/11/21 04:26:02;;;;;;;7.47;6.88;;;;;;;6.95;100.00;100681.72;6022578;23;20105;-73
2023/11/21 04:28:29;;;;;;;8.23;7.53;;;;;;;7.34;100.00;100739.41;5994326;23;20039;-75
2023/11/21 04:30:55;;;;;;;9.05;7.53;;;;;;;7.31;100.00;100734.28;6017650;23;20037;-72
2023/11/21 04:33:22;;;;;;;6.53;5.93;;;;;;;7.21;100.00;100716.44;6022128;23;20031;-73
2023/11/21 04:35:48;;;;;;;8.15;7.38;;;;;;;6.73;100.00;100642.53;6006760;23;20086;-74
2023/11/21 04:38:15;;;;;;;9.75;6.97;;;;;;;7.29;100.00;100738.72;6019363;23;20034;-73
2023/11/21 04:40:41;;;;;;;9.60;7.53;;;;;;;6.62;100.00;100650.78;6002927;23;20749;-74
2023/11/21 04:43:08;;;;;;;7.70;7.00;;;;;;;7.34;100.00;100735.94;6014221;23;20038;-74
2023/11/21 04:45:34;;;;;;;6.57;5.45;;;;;;;6.82;100.00;100672.69;6022797;23;20022;-74
2023/11/21 04:48:01;;;;;;;7.82;6.97;;;;;;;7.15;100.00;100736.63;6018121;23;20026;-74
2023/11/21 04:50:27;;;;;;;9.15;8.25;;;;;;;7.17;100.00;100726.13;6014902;23;20027;-74
2023/11/21 04:52:54;;;;;;;6.72;6.07;;;;;;;7.35;100.00;100742.84;6022210;23;20665;-74
2023/11/21 04:55:20;;;;;;;11.27;7.28;;;;;;;7.32;100.00;100753.44;6019712;23;20015;-74
2023/11/21 04:57:47;;;;;;;7.78;6.65;;;;;;;7.34;100.00;100756.84;5997324;23;20035;-74
2023/11/21 05:00:15;;;;;;;10.38;5.90;;;;;;;7.33;100.00;100752.50;5997907;23;20091;-74
2023/11/21 05:02:44;;;;;;;7.88;6.10;;;;;;;6.87;100.00;100705.47;5997908;23;20054;-74
2023/11/21 05:05:10;;;;;;;7.85;7.22;;;;;;;7.37;100.00;100777.59;6013112;23;20031;-75
2023/11/21 05:07:37;;;;;;;6.25;5.65;;;;;;;6.68;100.00;100683.59;5995990;23;20559;-73
2023/11/21 05:10:11;;;;;;;8.57;7.70;;;;;;;6.94;100.00;100708.75;5969120;23;20058;-74
2023/11/21 05:12:38;;;;;;;8.98;8.10;;;;;;;7.38;100.00;100781.91;6013883;23;20030;-73
2023/11/21 05:15:11;;;;;;;6.90;6.40;;;;;;;7.01;100.00;100707.59;6022937;23;20115;-75
2023/11/21 05:17:45;;;;;;;8.02;7.43;;;;;;;7.07;100.00;100730.84;6021547;23;20038;-73
2023/11/21 05:20:13;;;;;;;7.57;6.82;;;;;;;6.92;100.00;100718.38;6017161;23;20023;-73
2023/11/21 05:22:41;;;;;;;14.38;5.45;;;;;;;7.27;100.00;100776.25;5970920;23;20114;-73
2023/11/21 05:25:08;;;;;;;10.68;6.43;;;;;;;7.39;100.00;100794.03;5993286;23;20047;-73
2023/11/21 05:27:35;;;;;;;7.82;7.10;;;;;;;7.06;100.00;100765.69;5996352;23;20031;-74
2023/11/21 05:30:06;;;;;;;7.65;7.00;;;;;;;7.48;100.00;100798.09;6023037;23;20078;-73
2023/11/21 05:32:33;;;;;;;10.77;9.68;;;;;;;6.99;100.00;100723.28;5987180;23;20027;-73
2023/11/21 05:35:01;;;;;;;7.60;6.85;;;;;;;7.48;100.00;100798.94;6016763;23;20091;-74
2023/11/21 05:37:29;;;;;;;9.75;7.68;;;;;;;7.50;100.00;100806.72;5988815;23;20028;-74
2023/11/21 05:39:56;;;;;;;7.97;7.20;;;;;;;7.40;100.00;100793.16;6021093;23;20053;-74
2023/11/21 05:42:23;;;;;;;14.38;8.07;;;;;;;6.93;100.00;100718.31;5992397;23;20030;-74
2023/11/21 05:44:50;;;;;;;7.75;7.05;;;;;;;7.49;100.00;100813.69;6023383;23;20031;-73
2023/11/21 05:47:17;;;;;;;8.80;7.97;;;;;;;7.44;100.00;100804.31;6001970;23;20031;-74
2023/11/21 05:49:45;;;;;;;11.65;8.60;;;;;;;7.13;100.00;100764.53;6023901;23;20035;-75
2023/11/21 05:52:11;;;;;;;13.43;6.97;;;;;;;6.91;100.00;100732.31;6027195;23;20018;-73
2023/11/21 05:54:38;;;;;;;8.50;7.80;;;;;;;6.89;100.00;100747.16;6021677;23;20027;-73
2023/11/21 05:57:04;;;;;;;10.40;7.47;;;;;;;7.39;100.00;100823.59;5995980;23;20471;-74
2023/11/21 05:59:30;;;;;;;6.97;6.32;;;;;;;7.09;100.00;100780.38;6026648;23;20077;-74
2023/11/21 06:01:58;;;;;;;7.13;6.47;;;;;;;7.14;100.00;100778.47;6020411;23;20548;-74
2023/11/21 06:04:25;;;;;;;10.15;9.25;;;;;;;7.39;100.00;100836.66;6023901;23;20018;-74
2023/11/21 06:06:52;;;;;;;6.95;6.40;;;;;;;7.43;100.00;100841.78;6022072;23;20019;-74
2023/11/21 06:09:20;;;;;;;7.22;6.53;;;;;;;7.38;100.00;100849.81;6025451;23;20743;-74
2023/11/21 06:11:46;;;;;;;10.90;7.35;;;;;;;7.44;100.00;100852.19;6025764;23;20093;-74
2023/11/21 06:14:13;;;;;;;8.38;6.72;;;;;;;6.91;100.00;100774.06;6003753;23;20050;-73
2023/11/21 06:16:40;;;;;;;9.30;8.27;;;;;;;7.44;100.00;100872.19;6024067;23;20063;-74
2023/11/21 06:19:07;;;;;;;8.43;7.65;;;;;;;6.98;100.00;100799.03;5999591;23;20117;-73
2023/11/21 06:21:33;;;;;;;7.57;6.82;;;;;;;6.79;100.00;100776.22;6027060;23;20033;-74
2023/11/21 06:24:01;;;;;;;7.65;6.85;;;;;;;7.25;100.00;100851.13;6026604;23;20015;-73
2023/11/21 06:26:28;;;;;;;10.75;8.82;;;;;;;7.49;100.00;100878.97;6015392;23;20436;-75
2023/11/21 06:28:54;;;;;;;8.68;6.80;;;;;;;7.43;100.00;100888.78;6027278;23;20922;-73
2023/11/21 06:31:21;;;;;;;7.05;6.38;;;;;;;6.28;100.00;100701.50;5995643;23;20019;-73
2023/11/21 06:33:48;;;;;;;7.80;6.55;;;;;;;7.47;100.00;100895.59;6025675;23;20030;-73
2023/11/21 06:36:15;;;;;;;7.95;6.43;;;;;;;7.04;100.00;100830.13;5972658;23;20081;-73
2023/11/21 06:38:41;;;;;;;9.48;6.65;;;;;;;7.32;100.00;100884.81;5999698;23;20030;-72
2023/11/21 06:41:08;;;;;;;12.20;7.60;;;;;;;6.83;100.00;100789.13;5998013;23;20055;-73
2023/11/21 06:43:34;;;;;;;8.38;7.47;;;;;;;7.10;100.00;100842.97;6022819;23;20027;-74
2023/11/21 06:46:01;;;;;;;9.30;6.93;;;;;;;7.60;100.00;100909.94;5970926;23;20046;-74
2023/11/21 06:48:27;;;;;;;9.65;8.38;;;;;;;7.65;100.00;100904.53;6022963;23;20030;-75
2023/11/21 06:50:54;;;;;;;10.85;6.70;;;;;;;7.69;100.00;100911.34;6001424;23;20030;-74
2023/11/21 06:53:20;;;;;;;8.73;7.82;;;;;;;6.91;100.00;100787.94;5996528;23;20046;-73
2023/11/21 06:55:50;;;;;;;7.97;6.82;;;;;;;6.84;100.00;100775.19;6023861;23;20125;-74
2023/11/21 06:58:17;;;;;;;11.13;7.53;;;;;;;7.31;100.00;100861.38;6021022;23;20100;-74
2023/11/21 07:00:46;;;;;;;8.73;6.93;;;;;;;7.55;100.00;100902.25;5994394;23;20034;-74
2023/11/21 07:03:13;;;;;;;6.93;6.32;;;;;;;7.57;100.00;100925.69;6021390;23;20112;-73
2023/11/21 07:05:40;;;;;;;9.00;8.20;;;;;;;7.42;100.00;100921.88;6010853;23;20086;-73
2023/11/21 07:08:07;;;;;;;7.55;6.95;;;;;;;6.90;100.00;100821.94;6022679;23;20577;-75
2023/11/21 07:10:34;;;;;;;11.60;9.30;;;;;;;7.58;100.00;100936.09;6002553;23;20454;-75
2023/11/21 07:13:01;;;;;;;8.52;7.65;;;;;;;7.23;100.00;100887.72;6019162;23;20073;-75
2023/11/21 07:15:30;;;;;;;13.38;6.70;;;;;;;7.21;100.00;100897.38;6023681;23;20038;-75
2023/11/21 07:17:56;;;;;;;9.88;7.63;;;;;;;7.54;100.00;100960.63;6019596;23;20065;-73
2023/11/21 07:20:23;;;;;;;10.15;8.48;;;;;;;7.57;100.00;100975.31;6012898;23;20031;-75
2023/11/21 07:22:50;;;;;;;7.22;6.28;;;;;;;7.59;100.00;100981.34;6027163;23;20022;-74
2023/11/21 07:25:16;;;;;;;8.45;7.65;;;;;;;7.51;100.00;100965.94;5968936;23;20035;-75
2023/11/21 07:27:43;;;;;;;8.75;7.80;;;;;;;7.09;100.00;100901.25;5997120;23;20030;-76
2023/11/21 07:30:10;;;;;;;7.65;6.95;;;;;;;6.99;100.00;100879.84;6022236;23;20267;-74
2023/11/21 07:32:39;;;;;;;12.00;9.85;;;;;;;7.39;100.00;100946.31;5997521;23;20027;-75
2023/11/21 07:35:08;;;;;;;7.88;7.07;;;;;;;7.83;100.00;101002.28;6023971;23;20494;-74
2023/11/21 07:37:37;;;;;;;8.18;7.45;;;;;;;7.76;100.00;100984.22;5968156;23;20085;-74
2023/11/21 07:40:04;;;;;;;7.72;6.95;;;;;;;7.63;100.00;100955.97;6021276;23;20030;-75
2023/11/21 07:42:31;;;;;;;11.15;9.98;;;;;;;7.99;100.00;101032.19;6017650;23;20085;-74
2023/11/21 07:44:57;;;;;;;11.95;7.70;;;;;;;7.53;100.00;100908.44;6024444;23;20031;-76
2023/11/21 07:47:27;;;;;;;13.85;7.75;;;;;;;7.72;100.00;100958.28;6024589;23;20394;-75
2023/11/21 07:49:55;;;;;;;14.40;9.02;;;;;;;8.10;100.00;100987.38;6016537;23;20033;-75
2023/11/21 07:52:22;;;;;;;9.38;8.45;;;;;;;8.18;100.00;100990.56;6023109;23;20027;-77
2023/11/21 07:54:49;;;;;;;11.48;7.40;;;;;;;7.57;100.00;100905.66;6017534;23;20025;-75
2023/11/21 07:57:15;;;;;;;9.73;7.47;;;;;;;8.19;100.00;100998.31;6002238;23;20082;-74
2023/11/21 07:59:42;;;;;;;13.90;7.78;;;;;;;7.82;100.00;100953.53;5993694;23;20027;-75
2023/11/21 08:02:08;;;;;;;13.35;8.50;;;;;;;7.16;100.00;100842.75;6020805;23;20023;-75
2023/11/21 08:04:35;;;;;;;10.38;8.77;;;;;;;8.19;100.00;101006.16;5979856;23;20935;-73
2023/11/21 08:07:03;;;;;;;10.65;8.57;;;;;;;8.17;100.00;101007.13;6012838;23;20054;-73
2023/11/21 08:09:30;;;;;;;13.85;8.75;;;;;;;7.77;100.00;100948.50;6022297;23;20025;-75
2023/11/21 08:11:56;;;;;;;10.40;8.32;;;;;;;8.18;100.00;101014.91;6023765;23;20043;-74
2023/11/21 08:14:25;;;;;;;11.27;8.68;;;;;;;7.90;100.00;100967.19;6017470;23;20027;-76
2023/11/21 08:16:52;;;;;;;15.25;8.90;;;;;;;7.56;100.00;100911.78;5996111;23;20533;-76
2023/11/21 08:19:18;;;;;;;14.20;7.38;;;;;;;7.43;100.00;100889.63;5999439;23;20446;-74
2023/11/21 08:21:45;;;;;;;19.95;8.68;;;;;;;7.75;100.00;100952.91;5996108;23;20031;-74
2023/11/21 08:24:12;;;;;;;12.98;9.02;;;;;;;7.58;100.00;100922.19;6022497;23;20070;-75
2023/11/21 08:26:38;;;;;;;11.32;10.23;;;;;;;8.18;100.00;101008.84;5990540;23;20066;-75
2023/11/21 08:29:06;;;;;;;13.38;8.48;;;;;;;8.08;100.00;100994.38;6017208;23;20045;-73
2023/11/21 08:31:33;;;;;;;8.65;7.53;;;;;;;8.27;100.00;101034.63;5992682;23;20780;-75
2023/11/21 08:34:02;;;;;;;11.27;8.60;;;;;;;8.17;100.00;101012.34;6017497;23;20113;-77
2023/11/21 08:36:31;;;;;;;14.38;9.25;;;;;;;8.35;100.00;101035.19;5990141;23;20030;-77
2023/11/21 08:38:57;;;;;;;16.20;9.10;;;;;;;7.38;100.00;100868.91;6024395;23;20104;-76
2023/11/21 08:41:24;;;;;;;14.57;7.82;;;;;;;8.52;100.00;101033.72;6020486;23;20054;-75
2023/11/21 08:43:51;;;;;;;15.38;8.38;;;;;;;8.18;100.00;100969.63;6018480;23;20027;-75
2023/11/21 08:46:18;;;;;;;16.02;10.50;;;;;;;8.63;100.00;101026.34;6010948;23;20677;-74
2023/11/21 08:48:46;;;;;;;20.83;8.88;;;;;;;8.76;100.00;101034.59;6019176;23;21201;-75
2023/11/21 08:51:13;;;;;;;14.05;8.70;;;;;;;8.81;100.00;101044.84;6022620;23;20027;-74
2023/11/21 08:53:40;;;;;;;17.38;10.95;;;;;;;8.75;100.00;101017.16;6021544;23;20108;-76
2023/11/21 08:56:08;;;;;;;8.95;7.32;;;;;;;8.83;100.00;101033.41;5990114;23;20035;-75
2023/11/21 08:58:36;;;;;;;8.60;7.85;;;;;;;8.74;100.00;101025.91;6013655;23;20120;-76
2023/11/21 09:01:04;;;;;;;13.82;9.35;;;;;;;8.36;100.00;100983.78;6018722;23;20081;-75
2023/11/21 09:03:32;;;;;;;11.65;8.23;;;;;;;8.38;100.00;101008.09;6005651;23;20125;-76
2023/11/21 09:05:58;;;;;;;8.65;7.80;;;;;;;8.59;100.00;101028.22;5997618;23;20186;-75
2023/11/21 09:08:25;;;;;;;8.73;7.85;;;;;;;8.59;100.00;101036.06;6017516;23;20035;-77
2023/11/21 09:10:51;;;;;;;16.73;9.00;;;;;;;8.32;100.00;100996.09;6012115;23;20085;-74
2023/11/21 09:13:18;;;;;;;20.55;9.13;;;;;;;8.04;100.00;100945.75;6019044;23;20030;-70
2023/11/21 09:15:46;;;;;;;11.05;9.07;;;;;;;8.51;100.00;101047.75;6021732;23;20521;-71
2023/11/21 09:18:13;;;;;;;9.98;8.02;;;;;;;8.32;100.00;101009.19;6008596;23;20125;-72
2023/11/21 09:20:41;;;;;;;9.55;8.20;;;;;;;8.29;100.00;101016.28;6018574;23;20131;-71
2023/11/21 09:23:07;;;;;;;17.45;7.70;;;;;;;8.02;100.00;100964.13;6005918;23;20480;-72
2023/11/21 09:25:34;;;;;;;12.90;9.85;;;;;;;8.01;100.00;100953.72;6019822;23;20034;-71
2023/11/21 09:28:00;;;;;;;10.73;6.93;;;;;;;8.71;100.00;101074.00;6025115;23;20023;-71
2023/11/21 09:30:26;;;;;;;15.27;10.40;;;;;;;8.70;100.00;101068.81;5992197;23;20191;-71
2023/11/21 09:32:53;;;;;;;15.65;7.68;;;;;;;8.64;100.00;101062.06;6026324;23;20505;-71
2023/11/21 09:35:19;;;;;;;8.35;7.53;;;;;;;8.78;100.00;101078.09;5994278;23;20031;-71
2023/11/21 09:37:46;;;;;;;14.15;8.65;;;;;;;8.96;100.00;101088.72;5996015;23;20031;-70
2023/11/21 09:40:22;;;;;;;18.60;8.82;;;;;;;9.04;100.00;101093.66;6003919;23;20590;-70
2023/11/21 09:42:56;;;;;;;21.95;9.15;;;;;;;8.61;100.00;101011.63;5997758;23;20023;-71
2023/11/21 09:45:31;;;;;;;13.63;9.30;;;;;;;8.89;100.00;101069.81;6004913;23;20037;-71
2023/11/21 09:47:58;;;;;;;17.83;8.70;;;;;;;8.92;100.00;101074.06;6027854;23;20041;-71
2023/11/21 09:50:26;;;;;;;14.73;9.88;;;;;;;9.13;100.00;101085.47;6017433;23;20706;-71
2023/11/21 09:53:16;;;;;;;14.43;9.50;;;;;;;9.21;100.00;101075.53;5997655;23;20038;-70
2023/11/21 09:55:46;;;;;;;12.43;10.05;;;;;;;8.85;100.00;101010.66;6028280;23;20154;-70
2023/11/21 09:58:14;;;;;;;9.82;6.88;;;;;;;9.14;100.00;101059.22;6025168;23;20035;-70
2023/11/21 10:00:42;;;;;;;9.88;7.40;;;;;;;8.69;100.00;100989.47;5992744;23;20693;-70
2023/11/21 10:03:10;;;;;;;10.80;9.38;;;;;;;9.19;100.00;101052.00;6028557;23;20051;-70
2023/11/21 10:05:37;;;;;;;14.23;9.05;;;;;;;8.98;100.00;101011.88;5997312;23;20086;-69
2023/11/21 10:08:09;;;;;;;12.50;7.75;;;;;;;8.89;100.00;100979.97;6005606;23;20935;-71
2023/11/21 10:10:45;;;;;;;12.57;10.80;;;;;;;9.38;100.00;101046.88;6021749;23;20019;-70
2023/11/21 10:13:16;;;;;;;12.02;7.90;;;;;;;9.38;100.00;101046.88;6017245;23;20043;-70
2023/11/21 10:15:48;;;;;;;11.52;8.73;;;;;;;9.21;100.00;101006.59;6007736;23;20278;-69
2023/11/21 10:18:15;;;;;;;17.75;8.40;;;;;;;9.16;100.00;100970.09;5997243;23;20089;-70
2023/11/21 10:20:46;;;;;;;8.68;7.43;;;;;;;9.61;100.00;101034.59;6017564;23;20095;-70
2023/11/21 10:23:13;;;;;;;22.85;9.48;;;;;;;8.28;100.00;100810.63;6023165;23;20109;-70
2023/11/21 10:25:40;;;;;;;13.52;8.15;;;;;;;9.54;100.00;101009.53;6002274;23;20018;-70
2023/11/21 10:28:07;;;;;;;17.92;8.85;;;;;;;9.53;100.00;101002.63;6021134;23;20023;-70
2023/11/21 10:30:38;;;;;;;10.27;8.50;;;;;;;9.53;100.00;101002.63;5997021;23;20029;-71
2023/11/21 10:33:06;;;;;;;13.07;8.10;;;;;;;9.54;100.00;101007.81;6023053;23;20027;-70
2023/11/21 10:35:41;;;;;;;13.45;8.23;;;;;;;9.57;100.00;100998.94;6003417;23;20011;-70
2023/11/21 10:38:13;;;;;;;12.93;8.38;;;;;;;9.60;100.00;101004.03;6017531;23;20124;-70
2023/11/21 10:40:41;;;;;;;9.25;7.35;;;;;;;9.69;100.00;100995.78;6006449;23;20105;-70
2023/11/21 10:43:09;;;;;;;18.70;8.13;;;;;;;8.92;100.00;100881.25;6019078;23;20015;-70
2023/11/21 10:45:39;;;;;;;12.57;8.23;;;;;;;9.58;100.00;101004.13;6004768;23;20023;-70
2023/11/21 10:48:10;;;;;;;18.73;9.05;;;;;;;9.49;100.00;100972.22;6020624;23;20047;-71
2023/11/21 10:50:37;;;;;;;10.23;9.27;;;;;;;9.02;100.00;100900.03;5999844;23;20101;-70
2023/11/21 10:53:05;;;;;;;10.60;7.75;;;;;;;8.96;100.00;100910.72;6022979;23;20031;-70
2023/11/21 10:55:32;;;;;;;11.63;7.53;;;;;;;9.25;100.00;100981.97;5970095;23;20028;-70
2023/11/21 10:58:02;;;;;;;8.77;6.88;;;;;;;8.88;100.00;100925.91;5980337;23;20435;-70
2023/11/21 11:00:29;;;;;;;13.48;8.05;;;;;;;9.42;100.00;100994.34;6019075;23;20181;-70
2023/11/21 11:02:55;;;;;;;17.90;8.80;;;;;;;9.45;100.00;100992.47;5999472;23;20106;-70
2023/11/21 11:05:23;;;;;;;9.80;7.68;;;;;;;9.28;100.00;100951.28;6024869;23;20023;-70
2023/11/21 11:07:54;;;;;;;19.30;8.52;;;;;;;9.57;100.00;100984.06;6018958;23;20035;-70
2023/11/21 11:10:22;;;;;;;6.85;6.13;;;;;;;8.61;100.00;100811.03;5995204;23;20107;-71
2023/11/21 11:12:49;;;;;;;11.50;8.23;;;;;;;9.60;100.00;100985.69;5994171;23;20054;-70
2023/11/21 11:15:16;;;;;;;16.58;9.57;;;;;;;9.25;100.00;100921.75;6003166;23;20015;-71
2023/11/21 11:17:44;;;;;;;12.82;10.80;;;;;;;9.48;100.00;100963.53;6022207;23;20089;-71
2023/11/21 11:20:13;;;;;;;8.25;7.43;;;;;;;9.29;100.00;100939.88;6017865;23;20754;-71
2023/11/21 11:22:48;;;;;;;14.75;10.32;;;;;;;9.49;100.00;100959.97;5996264;23;20023;-70